Monday, June 25, 2018, 12:52 AM GMT
Back to Local

CYSJ, Saint John, N. B.

Location: , , Canada Lat: 45.333
Local Time: 12:52 AM GMT ( 0:52 GMT) Lon: -65.883
Time Zone: GMT Elev: 337 ft

Show me the last for .
Show Coded

Time T Td Feel RH Dir Speed Gust Alt SLP Vis Weather Sky Remarks
2018-06-25 00:00 61 57 - 87 30° 3 - 29.82 29.82 12 SCT035 OVC075 None
2018-06-24 23:00 61 55 - 82 180° 3 - 29.79 29.80 12 OVC076 None
2018-06-24 22:00 61 55 - 82 200° 6 - 29.78 29.78 15 SCT037 OVC078 None
2018-06-24 21:00 61 55 - 82 200° 10 - 29.76 29.77 15 FEW030 OVC073 None
2018-06-24 20:00 63 55 - 77 200° 14 - 29.75 29.76 15 FEW030 OVC073 None
2018-06-24 19:00 73 59 77 60 250° 7 - 29.73 29.74 15 FEW032 BKN067 BKN260 None
2018-06-24 18:00 64 55 - 72 210° 12 - 29.74 29.75 15 FEW020 BKN066 None
2018-06-24 17:00 66 57 - 72 200° 17 - 29.74 29.75 15 FEW024 FEW068 BKN260 None
2018-06-24 16:49 70 59 - 68 200° 15 - 29.74 29.74 15 FEW024 FEW066 SCT100 Wind Shift: 37 min
2018-06-24 16:00 68 57 - 68 260° 9 - 29.74 29.74 15 FEW020 FEW068 None
2018-06-24 15:00 64 55 - 72 320° 6 - 29.74 29.75 15 FEW013 SCT068 None
2018-06-24 14:15 63 57 - 82 280° 7 - 29.74 29.74 15 SCT011 BKN068 BKN250 None
2018-06-24 14:00 61 57 - 87 290° 7 - 29.74 29.74 15 BKN010 BKN068 None
2018-06-24 13:39 61 55 - 82 300° 7 - 29.73 29.74 15 BKN010 BKN066 None
2018-06-24 13:00 59 55 - 87 300° 5 - 29.73 29.74 15 BKN008 BKN066 None
2018-06-24 12:00 55 54 - 93 10° 6 - 29.73 29.74 8 BKN006 BKN250 None
2018-06-24 11:55 55 54 - 93 350° 6 - 29.73 29.74 5 BR BKN005 BKN250 None
2018-06-24 11:00 54 52 - 93 360° 10 - 29.72 29.73 3 BR OVC004 None
2018-06-24 10:39 54 52 - 93 320° 7 - 29.73 29.74 3 BR BKN003 OVC006 None
2018-06-24 10:00 54 54 - 100 330° 7 - 29.73 29.74 2 -DZ BR OVC003 None
2018-06-24 09:26 54 54 - 100 330° 6 - 29.73 29.73 3 -DZ BR SCT002 BKN005 OVC010 None
2018-06-24 09:16 54 54 - 100 320° 6 - 29.72 29.73 5 BR BKN005 OVC010 None
2018-06-24 09:00 54 54 - 100 310° 5 - 29.71 29.72 5 -RA BR BKN004 OVC009 None
2018-06-24 08:53 54 54 - 100 Variable 2 - 29.71 29.72 5 -RA BR BKN004 OVC010 None
2018-06-24 08:00 54 52 - 93 30° 6 - 29.71 29.71 5 -RA BR FEW003 BKN019 OVC028 None
2018-06-24 07:50 54 52 - 93 10° 6 - 29.71 29.72 3 -RA BR SCT003 OVC022 None
2018-06-24 07:22 54 52 - 93 10° 7 - 29.72 29.73 3 -RA BR BKN003 OVC027 Pressure falling rapidly
2018-06-24 07:00 54 52 - 93 10° 8 - 29.74 29.74 5 -RA BR FEW004 OVC027 None
2018-06-24 06:52 54 52 - 93 360° 10 - 29.74 29.75 5 -RA BR FEW004 OVC027 None
2018-06-24 06:36 54 52 - 93 360° 7 - 29.75 29.76 15 FEW004 OVC027 None
2018-06-24 06:13 54 52 - 93 40° 12 - 29.75 29.75 10 -RA SCT004 OVC025 Pressure falling rapidly
2018-06-24 06:00 54 52 - 93 20° 12 - 29.77 29.77 3 RA BR SCT004 OVC024 Pressure falling rapidly
2018-06-24 05:38 54 52 - 93 10° 9 - 29.79 29.80 3 RA BR SCT004 OVC019 Pressure falling rapidly
2018-06-24 05:28 54 52 - 93 350° 13 - 29.80 29.81 5 -RA BR SCT004 OVC025 Pressure falling rapidly
2018-06-24 05:24 54 52 - 93 350° 14 - 29.81 29.81 2 RA BR SCT004 OVC025 None
2018-06-24 05:16 54 54 - 100 330° 13 20 29.82 29.82 3 -RA BR SCT004 OVC021 None
2018-06-24 05:00 54 54 - 100 360° 8 - 29.80 29.81 3 -RA BR OVC023 None
2018-06-24 04:00 57 52 - 82 360° 8 - 29.81 29.81 8 -RA OVC025 None
2018-06-24 03:17 57 52 - 82 20° 7 - 29.83 29.83 15 -RA OVC029 None
2018-06-24 03:00 59 50 - 72 360° 9 - 29.84 29.84 15 OVC031 None
2018-06-24 02:00 59 52 - 77 - Calm - 29.86 29.86 15 BKN037 None
2018-06-24 01:00 59 50 - 72 180° 2 - 29.88 29.88 15 OVC048 None

Support USWX by starting your Amazon purchase here.